sensor_id;sensor_type;location;lat;lon;timestamp;temperature;humidity
59469;DHT22;45277;52.768;18.262;2022-08-20T00:00:43;21.60;99.90
59469;DHT22;45277;52.768;18.262;2022-08-20T00:02:15;21.60;99.90
59469;DHT22;45277;52.768;18.262;2022-08-20T00:03:48;21.50;99.90
59469;DHT22;45277;52.768;18.262;2022-08-20T00:05:25;21.60;99.90
59469;DHT22;45277;52.768;18.262;2022-08-20T00:07:02;21.60;99.90
59469;DHT22;45277;52.768;18.262;2022-08-20T00:08:36;21.60;99.90
59469;DHT22;45277;52.768;18.262;2022-08-20T00:10:09;21.60;99.90
59469;DHT22;45277;52.768;18.262;2022-08-20T00:11:41;21.60;99.90
59469;DHT22;45277;52.768;18.262;2022-08-20T00:13:19;21.60;99.90
59469;DHT22;45277;52.768;18.262;2022-08-20T00:14:50;21.50;99.90
59469;DHT22;45277;52.768;18.262;2022-08-20T00:16:23;21.60;99.90
59469;DHT22;45277;52.768;18.262;2022-08-20T00:17:57;21.50;99.90
59469;DHT22;45277;52.768;18.262;2022-08-20T00:19:30;21.50;99.90
59469;DHT22;45277;52.768;18.262;2022-08-20T00:21:05;21.50;99.90
59469;DHT22;45277;52.768;18.262;2022-08-20T00:22:39;21.50;99.90
59469;DHT22;45277;52.768;18.262;2022-08-20T00:24:11;21.50;99.90
59469;DHT22;45277;52.768;18.262;2022-08-20T00:25:44;21.50;99.90
59469;DHT22;45277;52.768;18.262;2022-08-20T00:27:17;21.50;99.90
59469;DHT22;45277;52.768;18.262;2022-08-20T00:28:51;21.50;99.90
59469;DHT22;45277;52.768;18.262;2022-08-20T00:30:25;21.50;99.90
59469;DHT22;45277;52.768;18.262;2022-08-20T00:31:59;21.50;99.90
59469;DHT22;45277;52.768;18.262;2022-08-20T00:33:31;21.50;99.90
59469;DHT22;45277;52.768;18.262;2022-08-20T00:35:03;21.50;99.90
59469;DHT22;45277;52.768;18.262;2022-08-20T00:36:35;21.50;99.90
59469;DHT22;45277;52.768;18.262;2022-08-20T00:38:07;21.50;99.90
59469;DHT22;45277;52.768;18.262;2022-08-20T00:39:41;21.40;99.90
59469;DHT22;45277;52.768;18.262;2022-08-20T00:41:24;21.40;99.90
59469;DHT22;45277;52.768;18.262;2022-08-20T00:42:59;21.50;99.90
59469;DHT22;45277;52.768;18.262;2022-08-20T00:44:32;21.40;99.90
59469;DHT22;45277;52.768;18.262;2022-08-20T00:46:10;21.40;99.90
59469;DHT22;45277;52.768;18.262;2022-08-20T00:47:42;21.40;99.90
59469;DHT22;45277;52.768;18.262;2022-08-20T00:49:17;21.40;99.90
59469;DHT22;45277;52.768;18.262;2022-08-20T00:50:49;21.40;99.90
59469;DHT22;45277;52.768;18.262;2022-08-20T00:52:22;21.40;99.90
59469;DHT22;45277;52.768;18.262;2022-08-20T00:53:57;21.40;99.90
59469;DHT22;45277;52.768;18.262;2022-08-20T00:55:33;21.30;99.90
59469;DHT22;45277;52.768;18.262;2022-08-20T00:57:30;21.30;99.90
59469;DHT22;45277;52.768;18.262;2022-08-20T00:59:14;21.30;99.90
59469;DHT22;45277;52.768;18.262;2022-08-20T01:00:57;21.30;99.90
59469;DHT22;45277;52.768;18.262;2022-08-20T01:02:30;21.30;99.90
59469;DHT22;45277;52.768;18.262;2022-08-20T01:04:02;21.30;99.90
59469;DHT22;45277;52.768;18.262;2022-08-20T01:05:41;21.30;99.90
59469;DHT22;45277;52.768;18.262;2022-08-20T01:07:14;21.30;99.90
59469;DHT22;45277;52.768;18.262;2022-08-20T01:08:47;21.20;99.90
59469;DHT22;45277;52.768;18.262;2022-08-20T01:10:27;21.20;99.90
59469;DHT22;45277;52.768;18.262;2022-08-20T01:12:02;21.20;99.90
59469;DHT22;45277;52.768;18.262;2022-08-20T01:13:36;21.20;99.90
59469;DHT22;45277;52.768;18.262;2022-08-20T01:15:13;21.20;99.90
59469;DHT22;45277;52.768;18.262;2022-08-20T01:16:57;21.20;99.90
59469;DHT22;45277;52.768;18.262;2022-08-20T01:18:31;21.20;99.90
59469;DHT22;45277;52.768;18.262;2022-08-20T01:20:12;21.20;99.90
59469;DHT22;45277;52.768;18.262;2022-08-20T01:21:45;21.10;99.90
59469;DHT22;45277;52.768;18.262;2022-08-20T01:25:12;21.20;99.90
59469;DHT22;45277;52.768;18.262;2022-08-20T01:26:45;21.20;99.90
59469;DHT22;45277;52.768;18.262;2022-08-20T01:29:08;21.20;99.90
59469;DHT22;45277;52.768;18.262;2022-08-20T01:30:19;21.20;99.90
59469;DHT22;45277;52.768;18.262;2022-08-20T01:31:51;21.20;99.90
59469;DHT22;45277;52.768;18.262;2022-08-20T01:33:23;21.20;99.90
59469;DHT22;45277;52.768;18.262;2022-08-20T01:34:56;21.20;99.90
59469;DHT22;45277;52.768;18.262;2022-08-20T01:36:34;21.20;99.90
59469;DHT22;45277;52.768;18.262;2022-08-20T01:38:07;21.20;99.90
59469;DHT22;45277;52.768;18.262;2022-08-20T01:39:39;21.20;99.90
59469;DHT22;45277;52.768;18.262;2022-08-20T01:41:38;21.20;99.90
59469;DHT22;45277;52.768;18.262;2022-08-20T01:43:11;21.30;99.90
59469;DHT22;45277;52.768;18.262;2022-08-20T01:44:44;21.30;99.90
59469;DHT22;45277;52.768;18.262;2022-08-20T01:46:17;21.20;99.90
59469;DHT22;45277;52.768;18.262;2022-08-20T01:47:49;21.30;99.90
59469;DHT22;45277;52.768;18.262;2022-08-20T01:49:27;21.30;99.90
59469;DHT22;45277;52.768;18.262;2022-08-20T01:51:10;21.20;99.90
59469;DHT22;45277;52.768;18.262;2022-08-20T01:53:05;21.30;99.90
59469;DHT22;45277;52.768;18.262;2022-08-20T01:54:45;21.20;99.90
59469;DHT22;45277;52.768;18.262;2022-08-20T01:56:23;21.20;99.90
59469;DHT22;45277;52.768;18.262;2022-08-20T01:57:56;21.20;99.90
59469;DHT22;45277;52.768;18.262;2022-08-20T01:59:28;21.20;99.90
59469;DHT22;45277;52.768;18.262;2022-08-20T02:01:00;21.20;99.90
59469;DHT22;45277;52.768;18.262;2022-08-20T02:02:32;21.20;99.90
59469;DHT22;45277;52.768;18.262;2022-08-20T02:04:07;21.20;99.90
59469;DHT22;45277;52.768;18.262;2022-08-20T02:05:40;21.20;99.90
59469;DHT22;45277;52.768;18.262;2022-08-20T02:07:17;21.20;99.90
59469;DHT22;45277;52.768;18.262;2022-08-20T02:08:53;21.20;99.90
59469;DHT22;45277;52.768;18.262;2022-08-20T02:10:26;21.10;99.90
59469;DHT22;45277;52.768;18.262;2022-08-20T02:12:00;21.10;99.90
59469;DHT22;45277;52.768;18.262;2022-08-20T02:13:34;21.10;99.90
59469;DHT22;45277;52.768;18.262;2022-08-20T02:15:09;21.10;99.90
59469;DHT22;45277;52.768;18.262;2022-08-20T02:16:45;21.10;99.90
59469;DHT22;45277;52.768;18.262;2022-08-20T02:18:17;21.10;99.90
59469;DHT22;45277;52.768;18.262;2022-08-20T02:20:00;21.00;99.90
59469;DHT22;45277;52.768;18.262;2022-08-20T02:21:33;21.10;99.90
59469;DHT22;45277;52.768;18.262;2022-08-20T02:23:06;21.10;99.90
59469;DHT22;45277;52.768;18.262;2022-08-20T02:24:53;21.10;99.90
59469;DHT22;45277;52.768;18.262;2022-08-20T02:26:26;21.00;99.90
59469;DHT22;45277;52.768;18.262;2022-08-20T02:27:59;21.00;99.90
59469;DHT22;45277;52.768;18.262;2022-08-20T02:29:32;21.00;99.90
59469;DHT22;45277;52.768;18.262;2022-08-20T02:31:10;21.00;99.90
59469;DHT22;45277;52.768;18.262;2022-08-20T02:32:43;21.00;99.90
59469;DHT22;45277;52.768;18.262;2022-08-20T02:34:15;20.90;99.90
59469;DHT22;45277;52.768;18.262;2022-08-20T02:35:48;20.90;99.90
59469;DHT22;45277;52.768;18.262;2022-08-20T02:37:20;20.90;99.90
59469;DHT22;45277;52.768;18.262;2022-08-20T02:38:52;20.90;99.90
59469;DHT22;45277;52.768;18.262;2022-08-20T02:40:27;20.90;99.90
59469;DHT22;45277;52.768;18.262;2022-08-20T02:41:59;20.80;99.90
59469;DHT22;45277;52.768;18.262;2022-08-20T02:43:33;20.80;99.90
59469;DHT22;45277;52.768;18.262;2022-08-20T02:45:08;20.80;99.90
59469;DHT22;45277;52.768;18.262;2022-08-20T02:46:42;20.80;99.90
59469;DHT22;45277;52.768;18.262;2022-08-20T02:48:17;20.80;99.90
59469;DHT22;45277;52.768;18.262;2022-08-20T02:49:50;20.80;99.90
59469;DHT22;45277;52.768;18.262;2022-08-20T02:51:23;20.70;99.90
59469;DHT22;45277;52.768;18.262;2022-08-20T02:52:54;20.70;99.90
59469;DHT22;45277;52.768;18.262;2022-08-20T02:54:26;20.60;99.90
59469;DHT22;45277;52.768;18.262;2022-08-20T02:55:59;20.70;99.90
59469;DHT22;45277;52.768;18.262;2022-08-20T02:57:32;20.60;99.90
59469;DHT22;45277;52.768;18.262;2022-08-20T02:59:04;20.70;99.90
59469;DHT22;45277;52.768;18.262;2022-08-20T03:00:43;20.70;99.90
59469;DHT22;45277;52.768;18.262;2022-08-20T03:02:15;20.70;99.90
59469;DHT22;45277;52.768;18.262;2022-08-20T03:03:48;20.70;99.90
59469;DHT22;45277;52.768;18.262;2022-08-20T03:05:20;20.70;99.90
59469;DHT22;45277;52.768;18.262;2022-08-20T03:06:52;20.70;99.90
59469;DHT22;45277;52.768;18.262;2022-08-20T03:08:24;20.70;99.90
59469;DHT22;45277;52.768;18.262;2022-08-20T03:09:58;20.70;99.90
59469;DHT22;45277;52.768;18.262;2022-08-20T03:11:30;20.70;99.90
59469;DHT22;45277;52.768;18.262;2022-08-20T03:13:03;20.70;99.90
59469;DHT22;45277;52.768;18.262;2022-08-20T03:14:35;20.70;99.90
59469;DHT22;45277;52.768;18.262;2022-08-20T03:16:07;20.70;99.90
59469;DHT22;45277;52.768;18.262;2022-08-20T03:17:39;20.70;99.90
59469;DHT22;45277;52.768;18.262;2022-08-20T03:19:12;20.70;99.90
59469;DHT22;45277;52.768;18.262;2022-08-20T03:20:44;20.60;99.90
59469;DHT22;45277;52.768;18.262;2022-08-20T03:22:17;20.70;99.90
59469;DHT22;45277;52.768;18.262;2022-08-20T03:23:48;20.70;99.90
59469;DHT22;45277;52.768;18.262;2022-08-20T03:25:21;20.70;99.90
59469;DHT22;45277;52.768;18.262;2022-08-20T03:26:59;20.70;99.90
59469;DHT22;45277;52.768;18.262;2022-08-20T03:28:31;20.70;99.90
59469;DHT22;45277;52.768;18.262;2022-08-20T03:30:05;20.70;99.90
59469;DHT22;45277;52.768;18.262;2022-08-20T03:31:38;20.60;99.90
59469;DHT22;45277;52.768;18.262;2022-08-20T03:33:11;20.60;99.90
59469;DHT22;45277;52.768;18.262;2022-08-20T03:34:43;20.70;99.90
59469;DHT22;45277;52.768;18.262;2022-08-20T03:36:14;20.60;99.90
59469;DHT22;45277;52.768;18.262;2022-08-20T03:37:48;20.70;99.90
59469;DHT22;45277;52.768;18.262;2022-08-20T03:39:20;20.60;99.90
59469;DHT22;45277;52.768;18.262;2022-08-20T03:40:52;20.60;99.90
59469;DHT22;45277;52.768;18.262;2022-08-20T03:42:24;20.60;99.90
59469;DHT22;45277;52.768;18.262;2022-08-20T03:44:04;20.60;99.90
59469;DHT22;45277;52.768;18.262;2022-08-20T03:45:39;20.60;99.90
59469;DHT22;45277;52.768;18.262;2022-08-20T03:47:11;20.50;99.90
59469;DHT22;45277;52.768;18.262;2022-08-20T03:48:42;20.50;99.90
59469;DHT22;45277;52.768;18.262;2022-08-20T03:50:14;20.50;99.90
59469;DHT22;45277;52.768;18.262;2022-08-20T03:51:45;20.50;99.90
59469;DHT22;45277;52.768;18.262;2022-08-20T03:53:18;20.50;99.90
59469;DHT22;45277;52.768;18.262;2022-08-20T03:54:49;20.50;99.90
59469;DHT22;45277;52.768;18.262;2022-08-20T03:56:21;20.50;99.90
59469;DHT22;45277;52.768;18.262;2022-08-20T03:58:00;20.50;99.90
59469;DHT22;45277;52.768;18.262;2022-08-20T03:59:34;20.40;99.90
59469;DHT22;45277;52.768;18.262;2022-08-20T04:01:06;20.40;99.90
59469;DHT22;45277;52.768;18.262;2022-08-20T04:02:40;20.40;99.90
59469;DHT22;45277;52.768;18.262;2022-08-20T04:04:11;20.40;99.90
59469;DHT22;45277;52.768;18.262;2022-08-20T04:05:43;20.40;99.90
59469;DHT22;45277;52.768;18.262;2022-08-20T04:07:22;20.40;99.90
59469;DHT22;45277;52.768;18.262;2022-08-20T04:08:59;20.40;99.90
59469;DHT22;45277;52.768;18.262;2022-08-20T04:10:42;20.40;99.90
59469;DHT22;45277;52.768;18.262;2022-08-20T04:12:17;20.40;99.90
59469;DHT22;45277;52.768;18.262;2022-08-20T04:13:49;20.40;99.90
59469;DHT22;45277;52.768;18.262;2022-08-20T04:15:23;20.40;99.90
59469;DHT22;45277;52.768;18.262;2022-08-20T04:16:54;20.40;99.90
59469;DHT22;45277;52.768;18.262;2022-08-20T04:18:26;20.40;99.90
59469;DHT22;45277;52.768;18.262;2022-08-20T04:20:03;20.50;99.90
59469;DHT22;45277;52.768;18.262;2022-08-20T04:21:35;20.50;99.90
59469;DHT22;45277;52.768;18.262;2022-08-20T04:23:07;20.50;99.90
59469;DHT22;45277;52.768;18.262;2022-08-20T04:24:40;20.50;99.90
59469;DHT22;45277;52.768;18.262;2022-08-20T04:26:12;20.50;99.90
59469;DHT22;45277;52.768;18.262;2022-08-20T04:27:44;20.60;99.90
59469;DHT22;45277;52.768;18.262;2022-08-20T04:29:16;20.60;99.90
59469;DHT22;45277;52.768;18.262;2022-08-20T04:30:50;20.60;99.90
59469;DHT22;45277;52.768;18.262;2022-08-20T04:32:22;20.70;99.90
59469;DHT22;45277;52.768;18.262;2022-08-20T04:33:56;20.70;99.90
59469;DHT22;45277;52.768;18.262;2022-08-20T04:35:28;20.70;99.90
59469;DHT22;45277;52.768;18.262;2022-08-20T04:37:00;20.80;99.90
59469;DHT22;45277;52.768;18.262;2022-08-20T04:38:32;20.80;99.90
59469;DHT22;45277;52.768;18.262;2022-08-20T04:40:07;20.80;99.90
59469;DHT22;45277;52.768;18.262;2022-08-20T04:42:03;20.80;99.90
59469;DHT22;45277;52.768;18.262;2022-08-20T04:43:36;20.90;99.90
59469;DHT22;45277;52.768;18.262;2022-08-20T04:45:09;21.00;99.90
59469;DHT22;45277;52.768;18.262;2022-08-20T04:46:42;21.10;99.90
59469;DHT22;45277;52.768;18.262;2022-08-20T04:48:14;21.10;99.90
59469;DHT22;45277;52.768;18.262;2022-08-20T04:50:00;21.20;99.90
59469;DHT22;45277;52.768;18.262;2022-08-20T04:51:33;21.30;99.90
59469;DHT22;45277;52.768;18.262;2022-08-20T04:53:08;21.20;99.90
59469;DHT22;45277;52.768;18.262;2022-08-20T04:54:39;21.30;99.90
59469;DHT22;45277;52.768;18.262;2022-08-20T04:56:12;21.20;99.90
59469;DHT22;45277;52.768;18.262;2022-08-20T04:57:43;21.30;99.90
59469;DHT22;45277;52.768;18.262;2022-08-20T04:59:15;21.30;99.90
59469;DHT22;45277;52.768;18.262;2022-08-20T05:00:49;21.30;99.90
59469;DHT22;45277;52.768;18.262;2022-08-20T05:02:21;21.40;99.90
59469;DHT22;45277;52.768;18.262;2022-08-20T05:03:54;21.40;99.90
59469;DHT22;45277;52.768;18.262;2022-08-20T05:05:26;21.40;99.90
59469;DHT22;45277;52.768;18.262;2022-08-20T05:06:58;21.50;99.90
59469;DHT22;45277;52.768;18.262;2022-08-20T05:08:31;21.50;99.90
59469;DHT22;45277;52.768;18.262;2022-08-20T05:10:06;21.50;99.90
59469;DHT22;45277;52.768;18.262;2022-08-20T05:11:38;21.60;99.90
59469;DHT22;45277;52.768;18.262;2022-08-20T05:13:10;21.60;99.90
59469;DHT22;45277;52.768;18.262;2022-08-20T05:14:45;21.70;99.90
59469;DHT22;45277;52.768;18.262;2022-08-20T05:16:18;21.70;99.90
59469;DHT22;45277;52.768;18.262;2022-08-20T05:17:54;21.70;99.90
59469;DHT22;45277;52.768;18.262;2022-08-20T05:19:27;21.70;99.90
59469;DHT22;45277;52.768;18.262;2022-08-20T05:21:11;21.80;99.90
59469;DHT22;45277;52.768;18.262;2022-08-20T05:22:44;21.80;99.90
59469;DHT22;45277;52.768;18.262;2022-08-20T05:24:15;21.80;99.90
59469;DHT22;45277;52.768;18.262;2022-08-20T05:25:48;21.80;99.90
59469;DHT22;45277;52.768;18.262;2022-08-20T05:27:23;21.90;99.90
59469;DHT22;45277;52.768;18.262;2022-08-20T05:29:03;21.90;99.90
59469;DHT22;45277;52.768;18.262;2022-08-20T05:30:38;21.90;99.90
59469;DHT22;45277;52.768;18.262;2022-08-20T05:32:10;21.90;99.90
59469;DHT22;45277;52.768;18.262;2022-08-20T05:33:42;22.00;99.90
59469;DHT22;45277;52.768;18.262;2022-08-20T05:35:14;22.00;99.90
59469;DHT22;45277;52.768;18.262;2022-08-20T05:36:48;22.10;99.90
59469;DHT22;45277;52.768;18.262;2022-08-20T05:38:24;22.20;99.90
59469;DHT22;45277;52.768;18.262;2022-08-20T05:39:57;22.30;99.90
59469;DHT22;45277;52.768;18.262;2022-08-20T05:41:28;22.30;99.90
59469;DHT22;45277;52.768;18.262;2022-08-20T05:42:59;22.40;99.90
59469;DHT22;45277;52.768;18.262;2022-08-20T05:44:35;22.40;99.90
59469;DHT22;45277;52.768;18.262;2022-08-20T05:46:09;22.40;99.90
59469;DHT22;45277;52.768;18.262;2022-08-20T05:47:40;22.50;99.90
59469;DHT22;45277;52.768;18.262;2022-08-20T05:49:17;22.50;99.90
59469;DHT22;45277;52.768;18.262;2022-08-20T05:50:51;22.40;99.90
59469;DHT22;45277;52.768;18.262;2022-08-20T05:52:24;22.40;99.90
59469;DHT22;45277;52.768;18.262;2022-08-20T05:53:56;22.50;99.90
59469;DHT22;45277;52.768;18.262;2022-08-20T05:55:28;22.40;99.90
59469;DHT22;45277;52.768;18.262;2022-08-20T05:57:00;22.50;99.90
59469;DHT22;45277;52.768;18.262;2022-08-20T05:58:32;22.60;99.90
59469;DHT22;45277;52.768;18.262;2022-08-20T06:00:10;22.70;99.90
59469;DHT22;45277;52.768;18.262;2022-08-20T06:01:43;22.80;99.90
59469;DHT22;45277;52.768;18.262;2022-08-20T06:03:15;22.80;99.90
59469;DHT22;45277;52.768;18.262;2022-08-20T06:05:06;22.70;99.90
59469;DHT22;45277;52.768;18.262;2022-08-20T06:06:39;22.80;99.90
59469;DHT22;45277;52.768;18.262;2022-08-20T06:08:11;22.80;99.90
59469;DHT22;45277;52.768;18.262;2022-08-20T06:09:43;22.80;99.90
59469;DHT22;45277;52.768;18.262;2022-08-20T06:11:17;22.80;99.90
59469;DHT22;45277;52.768;18.262;2022-08-20T06:12:48;22.80;99.90
59469;DHT22;45277;52.768;18.262;2022-08-20T06:14:24;22.90;99.90
59469;DHT22;45277;52.768;18.262;2022-08-20T06:15:58;22.90;99.90
59469;DHT22;45277;52.768;18.262;2022-08-20T06:17:30;22.90;99.90
59469;DHT22;45277;52.768;18.262;2022-08-20T06:19:05;22.90;99.90
59469;DHT22;45277;52.768;18.262;2022-08-20T06:20:38;22.80;99.90
59469;DHT22;45277;52.768;18.262;2022-08-20T06:22:09;22.90;99.90
59469;DHT22;45277;52.768;18.262;2022-08-20T06:23:41;22.80;99.90
59469;DHT22;45277;52.768;18.262;2022-08-20T06:25:12;22.90;99.90
59469;DHT22;45277;52.768;18.262;2022-08-20T06:26:44;22.80;99.90
59469;DHT22;45277;52.768;18.262;2022-08-20T06:28:16;22.80;99.90
59469;DHT22;45277;52.768;18.262;2022-08-20T06:29:48;23.00;99.90
59469;DHT22;45277;52.768;18.262;2022-08-20T06:31:20;22.90;99.90
59469;DHT22;45277;52.768;18.262;2022-08-20T06:32:52;22.90;99.90
59469;DHT22;45277;52.768;18.262;2022-08-20T06:34:23;23.00;99.90
59469;DHT22;45277;52.768;18.262;2022-08-20T06:35:58;22.90;99.90
59469;DHT22;45277;52.768;18.262;2022-08-20T06:37:33;22.90;99.90
59469;DHT22;45277;52.768;18.262;2022-08-20T06:39:06;23.00;99.90
59469;DHT22;45277;52.768;18.262;2022-08-20T06:40:39;23.00;99.90
59469;DHT22;45277;52.768;18.262;2022-08-20T06:42:24;23.00;99.90
59469;DHT22;45277;52.768;18.262;2022-08-20T06:43:55;23.10;99.90
59469;DHT22;45277;52.768;18.262;2022-08-20T06:45:31;23.10;99.90
59469;DHT22;45277;52.768;18.262;2022-08-20T06:47:03;23.10;99.90
59469;DHT22;45277;52.768;18.262;2022-08-20T06:48:36;23.20;99.90
59469;DHT22;45277;52.768;18.262;2022-08-20T06:50:10;23.20;99.90
59469;DHT22;45277;52.768;18.262;2022-08-20T06:51:43;23.10;99.90
59469;DHT22;45277;52.768;18.262;2022-08-20T06:53:17;23.10;99.90
59469;DHT22;45277;52.768;18.262;2022-08-20T06:54:49;23.20;99.90
59469;DHT22;45277;52.768;18.262;2022-08-20T06:56:22;23.20;99.90
59469;DHT22;45277;52.768;18.262;2022-08-20T06:57:58;23.30;99.90
59469;DHT22;45277;52.768;18.262;2022-08-20T06:59:37;23.40;99.90
59469;DHT22;45277;52.768;18.262;2022-08-20T07:01:12;23.40;99.90
59469;DHT22;45277;52.768;18.262;2022-08-20T07:02:43;23.50;99.90
59469;DHT22;45277;52.768;18.262;2022-08-20T07:04:20;23.40;99.90
59469;DHT22;45277;52.768;18.262;2022-08-20T07:05:51;23.50;99.90
59469;DHT22;45277;52.768;18.262;2022-08-20T07:07:25;23.50;99.90
59469;DHT22;45277;52.768;18.262;2022-08-20T07:08:56;23.50;99.90
59469;DHT22;45277;52.768;18.262;2022-08-20T07:10:29;23.60;99.90
59469;DHT22;45277;52.768;18.262;2022-08-20T07:12:01;23.80;99.90
59469;DHT22;45277;52.768;18.262;2022-08-20T07:13:33;23.90;99.90
59469;DHT22;45277;52.768;18.262;2022-08-20T07:15:08;24.00;99.90
59469;DHT22;45277;52.768;18.262;2022-08-20T07:16:41;24.10;99.90
59469;DHT22;45277;52.768;18.262;2022-08-20T07:18:13;24.00;99.90
59469;DHT22;45277;52.768;18.262;2022-08-20T07:19:47;24.10;99.90
59469;DHT22;45277;52.768;18.262;2022-08-20T07:21:19;24.30;99.90
59469;DHT22;45277;52.768;18.262;2022-08-20T07:22:58;24.40;99.90
59469;DHT22;45277;52.768;18.262;2022-08-20T07:24:30;24.50;99.90
59469;DHT22;45277;52.768;18.262;2022-08-20T07:26:06;24.50;99.90
59469;DHT22;45277;52.768;18.262;2022-08-20T07:27:41;24.40;99.90
59469;DHT22;45277;52.768;18.262;2022-08-20T07:29:12;24.40;99.90
59469;DHT22;45277;52.768;18.262;2022-08-20T07:30:47;24.50;99.90
59469;DHT22;45277;52.768;18.262;2022-08-20T07:32:40;24.50;99.90
59469;DHT22;45277;52.768;18.262;2022-08-20T07:34:12;24.50;99.90
59469;DHT22;45277;52.768;18.262;2022-08-20T07:35:44;24.50;99.90
59469;DHT22;45277;52.768;18.262;2022-08-20T07:37:20;24.60;99.90
59469;DHT22;45277;52.768;18.262;2022-08-20T07:38:54;24.70;99.90
59469;DHT22;45277;52.768;18.262;2022-08-20T07:40:30;24.80;99.90
59469;DHT22;45277;52.768;18.262;2022-08-20T07:42:04;24.80;99.90
59469;DHT22;45277;52.768;18.262;2022-08-20T07:43:41;24.60;99.90
59469;DHT22;45277;52.768;18.262;2022-08-20T07:45:16;24.60;99.90
59469;DHT22;45277;52.768;18.262;2022-08-20T07:46:58;24.80;99.90
59469;DHT22;45277;52.768;18.262;2022-08-20T07:48:38;24.80;99.90
59469;DHT22;45277;52.768;18.262;2022-08-20T07:50:16;24.90;99.90
59469;DHT22;45277;52.768;18.262;2022-08-20T07:51:51;25.00;99.90
59469;DHT22;45277;52.768;18.262;2022-08-20T07:53:23;25.20;99.90
59469;DHT22;45277;52.768;18.262;2022-08-20T07:54:54;25.20;99.90
59469;DHT22;45277;52.768;18.262;2022-08-20T07:56:27;25.30;99.90
59469;DHT22;45277;52.768;18.262;2022-08-20T07:58:07;25.40;99.90
59469;DHT22;45277;52.768;18.262;2022-08-20T07:59:45;25.40;99.90
59469;DHT22;45277;52.768;18.262;2022-08-20T08:01:18;25.60;99.90
59469;DHT22;45277;52.768;18.262;2022-08-20T08:02:50;25.70;99.90
59469;DHT22;45277;52.768;18.262;2022-08-20T08:04:23;25.70;99.90
59469;DHT22;45277;52.768;18.262;2022-08-20T08:05:55;25.70;99.90
59469;DHT22;45277;52.768;18.262;2022-08-20T08:07:29;26.00;99.90
59469;DHT22;45277;52.768;18.262;2022-08-20T08:09:08;26.30;99.90
59469;DHT22;45277;52.768;18.262;2022-08-20T08:10:42;26.40;99.90
59469;DHT22;45277;52.768;18.262;2022-08-20T08:12:14;26.40;99.90
59469;DHT22;45277;52.768;18.262;2022-08-20T08:13:46;26.50;99.90
59469;DHT22;45277;52.768;18.262;2022-08-20T08:15:22;26.30;99.90
59469;DHT22;45277;52.768;18.262;2022-08-20T08:17:02;26.40;99.90
59469;DHT22;45277;52.768;18.262;2022-08-20T08:18:54;26.50;99.90
59469;DHT22;45277;52.768;18.262;2022-08-20T08:20:26;26.40;99.90
59469;DHT22;45277;52.768;18.262;2022-08-20T08:22:02;26.60;99.90
59469;DHT22;45277;52.768;18.262;2022-08-20T08:23:34;26.80;99.90
59469;DHT22;45277;52.768;18.262;2022-08-20T08:25:06;26.90;99.90
59469;DHT22;45277;52.768;18.262;2022-08-20T08:26:46;27.00;99.90
59469;DHT22;45277;52.768;18.262;2022-08-20T08:28:20;27.20;99.90
59469;DHT22;45277;52.768;18.262;2022-08-20T08:29:51;27.10;99.90
59469;DHT22;45277;52.768;18.262;2022-08-20T08:31:24;27.20;99.90
59469;DHT22;45277;52.768;18.262;2022-08-20T08:32:56;26.90;99.90
59469;DHT22;45277;52.768;18.262;2022-08-20T08:34:47;27.00;99.90
59469;DHT22;45277;52.768;18.262;2022-08-20T08:36:19;27.00;99.90
59469;DHT22;45277;52.768;18.262;2022-08-20T08:37:52;27.10;99.90
59469;DHT22;45277;52.768;18.262;2022-08-20T08:39:24;27.20;99.90
59469;DHT22;45277;52.768;18.262;2022-08-20T08:41:06;27.30;99.90
59469;DHT22;45277;52.768;18.262;2022-08-20T08:42:51;27.30;99.90
59469;DHT22;45277;52.768;18.262;2022-08-20T08:44:36;27.40;99.90
59469;DHT22;45277;52.768;18.262;2022-08-20T08:46:11;27.30;99.90
59469;DHT22;45277;52.768;18.262;2022-08-20T08:47:43;27.60;99.90
59469;DHT22;45277;52.768;18.262;2022-08-20T08:49:32;27.90;99.90
59469;DHT22;45277;52.768;18.262;2022-08-20T08:51:05;28.20;99.90
59469;DHT22;45277;52.768;18.262;2022-08-20T08:52:44;28.00;99.90
59469;DHT22;45277;52.768;18.262;2022-08-20T08:54:21;28.10;99.90
59469;DHT22;45277;52.768;18.262;2022-08-20T08:55:56;28.40;99.90
59469;DHT22;45277;52.768;18.262;2022-08-20T08:57:27;28.10;99.90
59469;DHT22;45277;52.768;18.262;2022-08-20T08:59:07;28.00;99.90
59469;DHT22;45277;52.768;18.262;2022-08-20T09:00:39;28.40;99.90
59469;DHT22;45277;52.768;18.262;2022-08-20T09:02:20;28.50;99.90
59469;DHT22;45277;52.768;18.262;2022-08-20T09:03:54;28.20;99.90
59469;DHT22;45277;52.768;18.262;2022-08-20T09:07:35;28.40;99.90
59469;DHT22;45277;52.768;18.262;2022-08-20T09:09:17;28.60;99.90
59469;DHT22;45277;52.768;18.262;2022-08-20T09:10:52;28.80;99.90
59469;DHT22;45277;52.768;18.262;2022-08-20T09:12:24;28.90;99.90
59469;DHT22;45277;52.768;18.262;2022-08-20T09:13:58;29.00;99.90
59469;DHT22;45277;52.768;18.262;2022-08-20T09:15:29;28.90;99.90
59469;DHT22;45277;52.768;18.262;2022-08-20T09:17:02;28.60;99.90
59469;DHT22;45277;52.768;18.262;2022-08-20T09:18:33;28.60;99.90
59469;DHT22;45277;52.768;18.262;2022-08-20T09:20:05;28.70;99.90
59469;DHT22;45277;52.768;18.262;2022-08-20T09:21:39;28.80;99.90
59469;DHT22;45277;52.768;18.262;2022-08-20T09:23:11;29.10;99.90
59469;DHT22;45277;52.768;18.262;2022-08-20T09:24:43;29.20;99.90
59469;DHT22;45277;52.768;18.262;2022-08-20T09:26:14;29.20;99.90
59469;DHT22;45277;52.768;18.262;2022-08-20T09:27:45;29.40;99.90
59469;DHT22;45277;52.768;18.262;2022-08-20T09:29:18;29.60;99.90
59469;DHT22;45277;52.768;18.262;2022-08-20T09:30:51;29.50;99.90
59469;DHT22;45277;52.768;18.262;2022-08-20T09:32:23;29.40;99.40
59469;DHT22;45277;52.768;18.262;2022-08-20T09:33:55;29.60;96.40
59469;DHT22;45277;52.768;18.262;2022-08-20T09:35:28;29.80;99.90
59469;DHT22;45277;52.768;18.262;2022-08-20T09:37:06;29.90;94.10
59469;DHT22;45277;52.768;18.262;2022-08-20T09:38:39;29.90;91.70
59469;DHT22;45277;52.768;18.262;2022-08-20T09:40:17;29.70;93.00
59469;DHT22;45277;52.768;18.262;2022-08-20T09:41:50;29.70;94.00
59469;DHT22;45277;52.768;18.262;2022-08-20T09:43:21;29.40;89.50
59469;DHT22;45277;52.768;18.262;2022-08-20T09:44:54;29.30;73.30
59469;DHT22;45277;52.768;18.262;2022-08-20T09:46:28;29.30;78.70
59469;DHT22;45277;52.768;18.262;2022-08-20T09:48:00;29.30;85.20
59469;DHT22;45277;52.768;18.262;2022-08-20T09:49:33;29.40;85.70
59469;DHT22;45277;52.768;18.262;2022-08-20T09:51:12;29.20;89.30